Time;durP1;ratioP1;P1;durP2;ratioP2;P2;SDS_P1;SDS_P2;PMS_P1;PMS_P2;Temp;Humidity;BMP_temperature;BMP_pressure;BME280_temperature;BME280_humidity;BME280_pressure;Samples;Min_cycle;Max_cycle;Signal;HPM_P1;HPM_P2
2021/10/01 00:00:29;;;;;;;128.52;35.38;;;;;;;7.30;100.00;100291.09;2114755;28;20591;-74
2021/10/01 00:01:33;;;;;;;129.90;34.60;;;;;;;7.31;100.00;100290.84;2114947;28;20208;-74
2021/10/01 00:02:35;;;;;;;219.88;38.88;;;;;;;7.33;100.00;100293.25;2115529;28;20196;-74
2021/10/01 00:03:36;;;;;;;228.15;39.13;;;;;;;7.29;100.00;100287.63;2114406;28;20287;-74
2021/10/01 00:04:37;;;;;;;106.43;34.78;;;;;;;7.33;100.00;100287.97;2114898;28;20544;-74
2021/10/01 00:05:39;;;;;;;188.33;36.30;;;;;;;7.32;100.00;100286.34;2115448;28;20200;-74
2021/10/01 00:06:40;;;;;;;172.85;36.28;;;;;;;7.31;100.00;100288.22;2114980;28;20197;-74
2021/10/01 00:07:44;;;;;;;110.43;33.27;;;;;;;7.32;100.00;100289.81;2114808;28;20276;-74
2021/10/01 00:08:46;;;;;;;106.53;33.92;;;;;;;7.33;100.00;100283.44;2115564;28;20520;-74
2021/10/01 00:09:48;;;;;;;80.30;32.17;;;;;;;7.33;100.00;100278.13;2115381;28;20185;-74
2021/10/01 00:10:49;;;;;;;140.05;34.75;;;;;;;7.34;100.00;100286.91;2115416;28;20193;-74
2021/10/01 00:11:52;;;;;;;73.30;31.70;;;;;;;7.33;100.00;100282.66;2114763;28;20199;-74
2021/10/01 00:12:53;;;;;;;65.45;32.80;;;;;;;7.33;100.00;100287.97;2114781;28;20185;-74
2021/10/01 00:13:54;;;;;;;86.37;32.47;;;;;;;7.33;100.00;100282.66;2115351;28;20189;-74
2021/10/01 00:14:58;;;;;;;85.15;32.80;;;;;;;7.32;100.00;100289.81;2115593;28;20662;-74
2021/10/01 00:16:00;;;;;;;87.13;33.35;;;;;;;7.29;100.00;100282.31;2114625;28;20666;-74
2021/10/01 00:17:02;;;;;;;94.47;32.10;;;;;;;7.29;100.00;100292.94;2114957;28;20197;-74
2021/10/01 00:18:04;;;;;;;92.43;32.50;;;;;;;7.29;100.00;100292.94;2115315;28;20199;-74
2021/10/01 00:19:05;;;;;;;122.65;35.70;;;;;;;7.27;100.00;100295.03;2115366;28;20681;-74
2021/10/01 00:20:07;;;;;;;95.37;33.17;;;;;;;7.29;100.00;100292.94;2114654;28;20667;-74
2021/10/01 00:21:09;;;;;;;83.93;32.75;;;;;;;7.26;100.00;100284.66;2114991;28;20622;-74
2021/10/01 00:22:11;;;;;;;118.05;33.03;;;;;;;7.25;100.00;100289.16;2114664;28;20279;-74
2021/10/01 00:23:12;;;;;;;87.55;32.65;;;;;;;7.22;100.00;100289.66;2114683;28;20242;-74
2021/10/01 00:24:14;;;;;;;85.18;32.38;;;;;;;7.21;100.00;100288.06;2115554;28;20188;-74
2021/10/01 00:25:14;;;;;;;112.38;33.42;;;;;;;7.28;100.00;100285.22;2115311;28;20189;-74
2021/10/01 00:26:16;;;;;;;81.73;31.50;;;;;;;7.22;100.00;100288.88;2115564;28;20623;-75
2021/10/01 00:27:18;;;;;;;54.50;29.70;;;;;;;7.19;100.00;100286.69;2115341;28;20185;-74
2021/10/01 00:28:20;;;;;;;91.90;32.00;;;;;;;7.18;100.00;100285.06;2114566;28;20602;-74
2021/10/01 00:29:22;;;;;;;69.47;31.13;;;;;;;7.13;100.00;100277.06;2114697;28;20261;-74
2021/10/01 00:30:25;;;;;;;60.43;29.63;;;;;;;7.09;100.00;100288.13;2115334;28;20181;-74
2021/10/01 00:31:26;;;;;;;76.35;31.50;;;;;;;7.07;100.00;100284.13;2114630;28;20193;-74
2021/10/01 00:32:27;;;;;;;65.83;30.50;;;;;;;7.08;100.00;100285.72;2114911;28;20185;-74
2021/10/01 00:33:28;;;;;;;75.57;29.75;;;;;;;7.04;100.00;100281.97;2115354;28;20181;-74
2021/10/01 00:34:30;;;;;;;85.27;30.87;;;;;;;7.00;100.00;100278.97;2114639;28;20691;-74
2021/10/01 00:35:31;;;;;;;66.35;30.75;;;;;;;6.98;100.00;100282.94;2106208;28;20193;-74
2021/10/01 00:36:35;;;;;;;67.53;30.23;;;;;;;6.96;100.00;100279.72;2114824;28;20189;-74
2021/10/01 00:37:36;;;;;;;67.35;30.83;;;;;;;6.93;100.00;100277.53;2114558;28;20316;-74
2021/10/01 00:38:37;;;;;;;78.30;31.17;;;;;;;6.92;100.00;100275.94;2114701;28;20185;-74
2021/10/01 00:39:38;;;;;;;92.88;32.67;;;;;;;6.89;100.00;100276.41;2114608;28;20197;-74
2021/10/01 00:40:40;;;;;;;88.37;30.87;;;;;;;6.87;100.00;100274.00;2105781;28;20212;-74
2021/10/01 00:41:40;;;;;;;64.22;30.30;;;;;;;6.85;100.00;100275.28;2106237;28;20205;-74
2021/10/01 00:42:44;;;;;;;77.77;29.43;;;;;;;6.82;100.00;100275.78;2114859;28;20185;-74
2021/10/01 00:43:45;;;;;;;74.68;30.48;;;;;;;6.80;100.00;100274.16;2115246;28;20276;-74
2021/10/01 00:44:49;;;;;;;67.85;29.00;;;;;;;6.80;100.00;100282.13;2114549;28;20288;-74
2021/10/01 00:45:51;;;;;;;84.72;30.75;;;;;;;6.79;100.00;100269.91;2114680;28;20618;-74
2021/10/01 00:46:53;;;;;;;104.00;31.88;;;;;;;6.80;100.00;100273.38;2114539;28;20204;-74
2021/10/01 00:47:54;;;;;;;113.15;32.58;;;;;;;6.79;100.00;100272.56;2114670;28;20193;-74
2021/10/01 00:48:56;;;;;;;81.30;31.67;;;;;;;6.78;100.00;100270.97;2114571;28;20189;-74
2021/10/01 00:49:59;;;;;;;77.93;30.27;;;;;;;6.77;100.00;100274.63;2106483;28;20202;-74
2021/10/01 00:51:01;;;;;;;90.63;30.83;;;;;;;6.77;100.00;100269.31;2106342;28;20312;-74
2021/10/01 00:52:03;;;;;;;88.50;31.88;;;;;;;6.76;100.00;100272.22;2114685;28;20301;-74
2021/10/01 00:53:06;;;;;;;60.70;31.52;;;;;;;6.75;100.00;100265.31;2115199;28;20200;-74
2021/10/01 00:54:09;;;;;;;107.60;32.13;;;;;;;6.72;100.00;100263.94;2114558;28;20230;-74
2021/10/01 00:55:11;;;;;;;68.85;30.35;;;;;;;6.73;100.00;100276.16;2106420;28;20719;-74
2021/10/01 00:56:12;;;;;;;140.27;33.28;;;;;;;6.73;100.00;100268.22;2106177;28;20662;-74
2021/10/01 00:57:16;;;;;;;93.63;31.90;;;;;;;6.72;100.00;100268.47;2106109;28;20207;-73
2021/10/01 00:58:17;;;;;;;124.47;33.30;;;;;;;6.71;100.00;100269.50;2106583;28;20713;-74
2021/10/01 00:59:19;;;;;;;137.80;33.97;;;;;;;6.71;100.00;100269.50;2114504;28;20306;-74
2021/10/01 01:00:27;;;;;;;111.10;32.70;;;;;;;6.71;100.00;100264.19;2114618;28;20275;-74
2021/10/01 01:01:30;;;;;;;125.22;32.83;;;;;;;6.69;100.00;100261.78;2114505;28;20682;-74
2021/10/01 01:02:31;;;;;;;76.45;31.05;;;;;;;6.67;100.00;100268.34;2106246;28;20375;-74
2021/10/01 01:03:33;;;;;;;77.87;31.80;;;;;;;6.68;100.00;100269.97;2105988;28;20217;-74
2021/10/01 01:04:37;;;;;;;119.35;33.50;;;;;;;6.66;100.00;100266.75;2106200;28;20190;-74
2021/10/01 01:05:46;;;;;;;85.68;29.80;;;;;;;6.66;100.00;100264.91;2106506;28;20296;-75
2021/10/01 01:06:52;;;;;;;76.85;31.33;;;;;;;6.66;100.00;100270.22;2114950;28;20240;-74
2021/10/01 01:07:56;;;;;;;109.65;32.58;;;;;;;6.68;100.00;100267.31;2114508;28;20531;-74
2021/10/01 01:09:03;;;;;;;96.32;33.40;;;;;;;6.69;100.00;100260.97;2114601;28;20565;-74
2021/10/01 01:10:08;;;;;;;125.65;34.50;;;;;;;6.67;100.00;100258.56;2114492;28;20220;-74
2021/10/01 01:11:23;;;;;;;82.32;32.05;;;;;;;6.66;100.00;100254.28;2107466;28;20194;-74
2021/10/01 01:12:33;;;;;;;82.97;32.83;;;;;;;6.67;100.00;100255.91;2114671;28;20234;-74
2021/10/01 01:13:39;;;;;;;90.45;33.72;;;;;;;6.73;100.00;100262.91;2114490;28;20237;-74
2021/10/01 01:14:44;;;;;;;65.72;32.30;;;;;;;6.69;100.00;100261.78;2114636;28;20188;-74
2021/10/01 01:15:52;;;;;;;88.53;33.28;;;;;;;6.68;100.00;100257.50;2115421;28;20628;-74
2021/10/01 01:16:57;;;;;;;85.40;32.72;;;;;;;6.67;100.00;100261.22;2108654;28;20599;-74
2021/10/01 01:18:03;;;;;;;64.57;32.03;;;;;;;6.66;100.00;100254.28;2107839;28;20197;-74
2021/10/01 01:19:10;;;;;;;85.55;33.45;;;;;;;6.64;100.00;100261.69;2108221;28;20190;-74
2021/10/01 01:20:16;;;;;;;94.53;34.70;;;;;;;6.63;100.00;100257.44;2108245;28;20358;-74
2021/10/01 01:21:23;;;;;;;54.95;31.02;;;;;;;6.64;100.00;100258.25;2108086;28;20292;-75
2021/10/01 01:22:31;;;;;;;103.30;33.22;;;;;;;6.63;100.00;100257.44;2116258;27;20189;-74
2021/10/01 01:24:00;;;;;;;101.65;32.58;;;;;;;6.61;100.00;100254.22;2116219;28;20230;-74
2021/10/01 01:25:30;;;;;;;123.22;34.15;;;;;;;6.60;100.00;100257.09;2101243;28;20205;-74
2021/10/01 01:26:51;;;;;;;129.65;32.92;;;;;;;6.57;100.00;100262.91;2110767;28;20595;-75
2021/10/01 01:27:59;;;;;;;114.88;31.88;;;;;;;6.55;100.00;100255.19;2110144;28;20236;-73
2021/10/01 01:29:08;;;;;;;78.72;31.58;;;;;;;6.54;100.00;100264.19;2108587;28;20276;-74
2021/10/01 01:30:13;;;;;;;110.20;32.35;;;;;;;6.54;100.00;100266.84;2108805;28;20246;-74
2021/10/01 01:31:25;;;;;;;120.10;33.10;;;;;;;6.53;100.00;100261.78;2108562;28;20193;-74
2021/10/01 01:32:31;;;;;;;74.78;31.42;;;;;;;6.50;100.00;100263.03;2115810;28;20204;-74
2021/10/01 01:33:33;;;;;;;98.53;32.45;;;;;;;6.49;100.00;100266.72;2107961;28;20185;-74
2021/10/01 01:34:40;;;;;;;86.20;32.10;;;;;;;6.51;100.00;100267.28;2107600;28;20198;-74
2021/10/01 01:35:42;;;;;;;108.75;32.90;;;;;;;6.53;100.00;100267.09;2108073;28;20182;-74
2021/10/01 01:36:44;;;;;;;105.40;32.72;;;;;;;6.54;100.00;100268.69;2107516;28;20201;-74
2021/10/01 01:37:51;;;;;;;118.00;34.15;;;;;;;6.54;100.00;100272.13;2107655;28;20338;-74
2021/10/01 01:38:56;;;;;;;131.52;34.28;;;;;;;6.52;100.00;100271.59;2108305;28;20632;-74
2021/10/01 01:39:57;;;;;;;203.23;36.63;;;;;;;6.52;100.00;100268.94;2107637;28;20231;-74
2021/10/01 01:41:01;;;;;;;164.80;35.33;;;;;;;6.51;100.00;100272.59;2116084;28;20185;-74
2021/10/01 01:42:03;;;;;;;134.40;34.28;;;;;;;6.50;100.00;100266.50;2116671;28;20257;-74
2021/10/01 01:43:08;;;;;;;130.50;32.85;;;;;;;6.51;100.00;100269.94;2116018;27;20197;-74
2021/10/01 01:44:09;;;;;;;150.57;33.03;;;;;;;6.50;100.00;100265.69;2107751;28;20261;-74
2021/10/01 01:45:15;;;;;;;111.95;31.73;;;;;;;6.51;100.00;100269.94;2115751;28;20597;-74
2021/10/01 01:46:17;;;;;;;151.38;31.30;;;;;;;6.53;100.00;100261.78;2115910;28;20632;-74
2021/10/01 01:47:19;;;;;;;155.18;32.65;;;;;;;6.50;100.00;100263.84;2115987;28;20200;-74
2021/10/01 01:48:21;;;;;;;140.93;31.38;;;;;;;6.48;100.00;100265.94;2107348;28;20186;-74
2021/10/01 01:49:24;;;;;;;120.90;31.13;;;;;;;6.48;100.00;100265.94;2107575;28;20208;-74
2021/10/01 01:50:25;;;;;;;181.57;33.90;;;;;;;6.48;100.00;100265.13;2107352;28;20193;-74
2021/10/01 01:51:29;;;;;;;149.68;31.75;;;;;;;6.46;100.00;100267.22;2107107;28;20229;-74
2021/10/01 01:52:33;;;;;;;130.27;30.95;;;;;;;6.46;100.00;100264.56;2107491;28;20198;-74
2021/10/01 01:53:35;;;;;;;150.35;32.53;;;;;;;6.44;100.00;100269.31;2107659;28;20178;-74
2021/10/01 01:54:38;;;;;;;161.75;32.45;;;;;;;6.39;100.00;100266.56;2107270;28;20268;-74
2021/10/01 01:55:40;;;;;;;128.25;32.72;;;;;;;6.41;100.00;100275.06;2115628;28;20617;-74
2021/10/01 01:56:41;;;;;;;153.18;32.90;;;;;;;6.40;100.00;100268.16;2115613;28;20201;-74
2021/10/01 01:57:46;;;;;;;116.75;31.20;;;;;;;6.37;100.00;100272.09;2107311;28;20197;-74
2021/10/01 01:58:50;;;;;;;148.63;32.50;;;;;;;6.36;100.00;100267.84;2108034;28;20213;-74
2021/10/01 01:59:56;;;;;;;107.95;30.60;;;;;;;6.34;100.00;100274.41;2107581;28;20196;-74
2021/10/01 02:01:06;;;;;;;144.05;31.30;;;;;;;6.30;100.00;100273.28;2115752;28;20188;-74
2021/10/01 02:02:12;;;;;;;108.32;30.58;;;;;;;6.28;100.00;100264.78;2107683;28;20652;-74
2021/10/01 02:03:14;;;;;;;89.97;29.92;;;;;;;6.29;100.00;100266.38;2115516;28;20189;-74
2021/10/01 02:04:21;;;;;;;114.57;30.67;;;;;;;6.26;100.00;100269.53;2107736;28;20182;-74
2021/10/01 02:05:23;;;;;;;97.20;29.60;;;;;;;6.26;100.00;100270.31;2107538;28;20197;-74
2021/10/01 02:06:27;;;;;;;83.75;30.08;;;;;;;6.23;100.00;100268.94;2107234;28;20189;-74
2021/10/01 02:07:29;;;;;;;106.45;30.20;;;;;;;6.21;100.00;100267.56;2107492;28;20190;-74
2021/10/01 02:08:32;;;;;;;89.75;29.52;;;;;;;6.20;100.00;100271.25;2107501;28;20675;-74
2021/10/01 02:09:33;;;;;;;78.72;28.52;;;;;;;6.20;100.00;100277.38;2115752;28;20203;-74
2021/10/01 02:10:37;;;;;;;83.97;29.67;;;;;;;6.23;100.00;100279.53;2115548;28;20242;-74
2021/10/01 02:11:38;;;;;;;74.85;27.58;;;;;;;6.21;100.00;100280.81;2107408;28;20197;-74
2021/10/01 02:12:41;;;;;;;102.38;30.08;;;;;;;6.18;100.00;100274.16;2107188;28;20688;-74
2021/10/01 02:13:46;;;;;;;106.05;29.80;;;;;;;6.16;100.00;100276.22;2115562;28;20193;-74
2021/10/01 02:14:52;;;;;;;79.53;28.85;;;;;;;6.11;100.00;100276.13;2115660;28;20222;-74
2021/10/01 02:15:55;;;;;;;70.13;28.55;;;;;;;6.08;100.00;100273.13;2115567;28;20197;-74
2021/10/01 02:16:58;;;;;;;88.72;28.00;;;;;;;6.05;100.00;100274.44;2107268;28;20273;-74
2021/10/01 02:18:00;;;;;;;94.22;28.20;;;;;;;6.03;100.00;100273.06;2115491;28;20287;-74
2021/10/01 02:19:04;;;;;;;124.78;30.52;;;;;;;6.01;100.00;100275.94;2107270;28;20197;-74
2021/10/01 02:20:09;;;;;;;127.53;30.48;;;;;;;6.01;100.00;100275.94;2107753;28;20297;-74
2021/10/01 02:21:12;;;;;;;89.72;27.75;;;;;;;6.00;100.00;100277.00;2107424;28;20604;-74
2021/10/01 02:22:16;;;;;;;63.63;26.73;;;;;;;5.97;100.00;100269.50;2107605;28;20664;-74
2021/10/01 02:23:18;;;;;;;112.45;29.42;;;;;;;5.99;100.00;100269.25;2107337;28;20236;-74
2021/10/01 02:24:23;;;;;;;81.85;28.75;;;;;;;5.99;100.00;100277.19;2115346;28;20243;-74
2021/10/01 02:26:50;;;;;;;87.57;27.83;;;;;;;5.97;100.00;100276.66;2109681;28;20691;-74
2021/10/01 02:27:54;;;;;;;126.90;28.88;;;;;;;5.95;100.00;100271.59;2115833;28;20166;-74
2021/10/01 02:28:59;;;;;;;101.95;28.45;;;;;;;5.93;100.00;100269.19;2115486;28;20625;-74
2021/10/01 02:30:03;;;;;;;121.93;28.05;;;;;;;5.91;100.00;100276.56;2115350;28;20197;-74
2021/10/01 02:31:08;;;;;;;122.65;28.90;;;;;;;5.88;100.00;100287.56;2107356;28;20221;-74
2021/10/01 02:32:13;;;;;;;123.40;28.52;;;;;;;5.84;100.00;100277.69;2107415;28;20189;-74
2021/10/01 02:33:25;;;;;;;111.22;28.42;;;;;;;5.81;100.00;100278.94;2107838;28;20596;-74
2021/10/01 02:34:33;;;;;;;95.50;27.27;;;;;;;5.79;100.00;100278.38;2108411;28;20284;-74
2021/10/01 02:35:37;;;;;;;139.15;28.92;;;;;;;5.80;100.00;100287.13;2107996;28;20189;-74
2021/10/01 02:36:38;;;;;;;126.85;29.05;;;;;;;5.79;100.00;100293.47;2106969;28;20246;-75
2021/10/01 02:37:40;;;;;;;129.73;28.83;;;;;;;5.73;100.00;100287.25;2106836;28;20243;-74
2021/10/01 02:38:41;;;;;;;118.65;30.08;;;;;;;5.70;100.00;100284.28;2106912;28;20193;-74
2021/10/01 02:39:45;;;;;;;132.65;29.17;;;;;;;5.71;100.00;100292.00;2106794;28;20197;-73
2021/10/01 02:40:46;;;;;;;165.52;30.85;;;;;;;5.72;100.00;100287.50;2107348;28;20663;-74
2021/10/01 02:41:48;;;;;;;149.48;29.83;;;;;;;5.70;100.00;100284.28;2106909;28;20628;-75
2021/10/01 02:42:48;;;;;;;83.25;28.50;;;;;;;5.69;100.00;100278.19;2115576;28;20655;-74
2021/10/01 02:43:50;;;;;;;80.03;28.93;;;;;;;5.66;100.00;100282.13;2115294;28;20221;-74
2021/10/01 02:44:51;;;;;;;113.78;30.63;;;;;;;5.66;100.00;100290.06;2115578;28;20196;-74
2021/10/01 02:45:53;;;;;;;131.32;30.58;;;;;;;5.64;100.00;100283.38;2115256;28;20306;-74
2021/10/01 02:46:56;;;;;;;188.15;31.58;;;;;;;5.64;100.00;100292.09;2106987;28;20194;-74
2021/10/01 02:48:02;;;;;;;112.25;30.48;;;;;;;5.64;100.00;100291.31;2115360;28;20205;-73
2021/10/01 02:49:04;;;;;;;173.30;33.08;;;;;;;5.64;100.00;100299.25;2115239;28;20185;-74
2021/10/01 02:50:08;;;;;;;122.50;30.58;;;;;;;5.62;100.00;100294.19;2106835;28;20204;-74
2021/10/01 02:51:14;;;;;;;183.20;35.25;;;;;;;5.64;100.00;100294.75;2115088;28;20233;-74
2021/10/01 02:52:24;;;;;;;109.05;30.30;;;;;;;5.63;100.00;100293.16;2107754;28;20194;-74
2021/10/01 02:53:32;;;;;;;145.00;32.83;;;;;;;5.64;100.00;100296.59;2115310;28;20284;-74
2021/10/01 02:54:44;;;;;;;149.32;31.98;;;;;;;5.60;100.00;100290.97;2115555;28;20199;-74
2021/10/01 02:55:48;;;;;;;126.70;33.10;;;;;;;5.62;100.00;100291.53;2115213;28;20227;-74
2021/10/01 02:56:53;;;;;;;135.98;32.75;;;;;;;5.60;100.00;100290.97;2115490;28;20189;-74
2021/10/01 02:58:00;;;;;;;174.40;36.33;;;;;;;5.59;100.00;100286.72;2115412;28;20208;-74
2021/10/01 02:59:03;;;;;;;142.77;33.60;;;;;;;5.58;100.00;100286.97;2107577;28;20697;-74
2021/10/01 03:00:05;;;;;;;154.38;34.50;;;;;;;5.54;100.00;100280.50;2107071;28;20197;-74
2021/10/01 03:01:11;;;;;;;109.68;32.60;;;;;;;5.56;100.00;100289.84;2106855;28;20298;-74
2021/10/01 03:02:14;;;;;;;130.00;32.38;;;;;;;5.54;100.00;100289.25;2107343;28;20208;-74
2021/10/01 03:03:21;;;;;;;80.53;30.38;;;;;;;5.54;100.00;100285.81;2115021;28;20204;-74
2021/10/01 03:04:23;;;;;;;65.28;30.27;;;;;;;5.58;100.00;100286.97;2107424;28;20220;-74
2021/10/01 03:05:25;;;;;;;56.50;30.45;;;;;;;5.53;100.00;100285.00;2106880;28;20642;-74
2021/10/01 03:06:29;;;;;;;76.55;30.85;;;;;;;5.57;100.00;100286.16;2115230;28;20184;-74
2021/10/01 03:07:33;;;;;;;53.30;30.05;;;;;;;5.57;100.00;100280.88;2115070;28;20177;-74
2021/10/01 03:08:35;;;;;;;59.63;29.58;;;;;;;5.55;100.00;100280.28;2107091;28;20201;-74
2021/10/01 03:09:37;;;;;;;53.30;28.13;;;;;;;5.54;100.00;100276.03;2115067;28;20220;-74
2021/10/01 03:10:38;;;;;;;62.20;30.55;;;;;;;5.55;100.00;100282.13;2115027;28;20205;-74
2021/10/01 03:11:40;;;;;;;84.10;31.10;;;;;;;5.53;100.00;100284.19;2106730;28;20190;-74
2021/10/01 03:12:43;;;;;;;61.88;29.60;;;;;;;5.51;100.00;100283.63;2115191;28;20193;-74
2021/10/01 03:13:47;;;;;;;49.95;29.08;;;;;;;5.52;100.00;100282.59;2115008;28;20249;-74
2021/10/01 03:14:49;;;;;;;83.88;29.42;;;;;;;5.52;100.00;100285.22;2107205;28;20296;-74
2021/10/01 03:15:52;;;;;;;55.78;28.05;;;;;;;5.53;100.00;100274.41;2106903;28;20639;-74
2021/10/01 03:16:55;;;;;;;69.30;29.20;;;;;;;5.48;100.00;100271.66;2115008;28;20193;-74
2021/10/01 03:17:58;;;;;;;72.07;30.65;;;;;;;5.52;100.00;100280.75;2106791;28;20201;-74
2021/10/01 03:18:59;;;;;;;71.68;29.95;;;;;;;5.53;100.00;100279.69;2106906;28;20276;-74
2021/10/01 03:20:01;;;;;;;93.50;29.33;;;;;;;5.54;100.00;100276.03;2115325;28;20189;-74
2021/10/01 03:21:04;;;;;;;61.60;29.10;;;;;;;5.49;100.00;100273.28;2115015;28;20546;-74
2021/10/01 03:22:09;;;;;;;68.68;28.73;;;;;;;5.49;100.00;100273.28;2106962;28;20262;-74
2021/10/01 03:23:14;;;;;;;81.85;30.55;;;;;;;5.50;100.00;100266.13;2106966;28;20742;-74
2021/10/01 03:24:15;;;;;;;99.00;30.73;;;;;;;5.47;100.00;100274.53;2114936;28;20217;-74
2021/10/01 03:25:18;;;;;;;72.27;30.20;;;;;;;5.45;100.00;100266.81;2106561;28;20217;-74
2021/10/01 03:26:19;;;;;;;78.18;30.45;;;;;;;5.43;100.00;100268.91;2106816;28;20567;-74
2021/10/01 03:27:21;;;;;;;75.10;30.13;;;;;;;5.42;100.00;100264.66;2106649;28;20300;-74
2021/10/01 03:28:22;;;;;;;83.57;30.45;;;;;;;5.39;100.00;100270.41;2106543;28;20736;-74
2021/10/01 03:29:27;;;;;;;76.47;31.23;;;;;;;5.36;100.00;100270.88;2106558;28;20536;-75
2021/10/01 03:30:28;;;;;;;88.50;28.30;;;;;;;5.36;100.00;100261.09;2106997;28;20730;-74
2021/10/01 03:31:29;;;;;;;67.10;29.07;;;;;;;5.33;100.00;100266.03;2106493;28;20575;-74
2021/10/01 03:32:31;;;;;;;86.47;30.23;;;;;;;5.34;100.00;100259.72;2106577;28;20299;-74
2021/10/01 03:33:34;;;;;;;71.68;28.83;;;;;;;5.34;100.00;100262.34;2106711;28;20632;-74
2021/10/01 03:34:34;;;;;;;94.72;32.30;;;;;;;5.33;100.00;100261.56;2106530;28;20208;-74
2021/10/01 03:35:44;;;;;;;80.05;32.67;;;;;;;5.36;100.00;100263.72;2107601;28;20255;-74
2021/10/01 03:36:48;;;;;;;104.55;33.53;;;;;;;5.34;100.00;100259.72;2106581;28;20205;-75
2021/10/01 03:37:52;;;;;;;124.28;32.47;;;;;;;5.33;100.00;100260.75;2107055;28;20189;-74
2021/10/01 03:38:54;;;;;;;121.78;33.35;;;;;;;5.31;100.00;100260.19;2106398;28;20190;-74
2021/10/01 03:39:56;;;;;;;82.78;32.92;;;;;;;5.26;100.00;100257.41;2106640;28;20192;-74
2021/10/01 03:40:59;;;;;;;132.25;34.22;;;;;;;5.26;100.00;100260.06;2114805;28;20188;-74
2021/10/01 03:42:00;;;;;;;106.18;32.15;;;;;;;5.23;100.00;100257.88;2114790;28;20314;-74
2021/10/01 03:43:03;;;;;;;111.43;33.37;;;;;;;5.23;100.00;100260.53;2114905;28;20189;-74
2021/10/01 03:44:09;;;;;;;76.55;31.98;;;;;;;5.25;100.00;100253.97;2115124;28;20339;-74
2021/10/01 03:45:11;;;;;;;89.28;33.35;;;;;;;5.27;100.00;100257.19;2106509;28;20197;-74
2021/10/01 03:46:12;;;;;;;128.25;33.83;;;;;;;5.28;100.00;100255.34;2106435;28;20201;-74
2021/10/01 03:47:14;;;;;;;153.10;34.50;;;;;;;5.28;100.00;100252.69;2106374;28;20186;-74
2021/10/01 03:48:14;;;;;;;139.10;35.20;;;;;;;5.23;100.00;100249.94;2114944;28;20203;-74
2021/10/01 03:49:31;;;;;;;124.18;34.63;;;;;;;5.24;100.00;100244.44;2114806;28;20192;-74
2021/10/01 03:50:34;;;;;;;117.78;34.90;;;;;;;5.24;100.00;100248.91;2114922;28;20593;-75
2021/10/01 03:51:36;;;;;;;81.72;31.95;;;;;;;5.23;100.00;100245.47;2114705;28;20200;-75
2021/10/01 03:52:37;;;;;;;138.15;34.10;;;;;;;5.19;100.00;100240.84;2106395;28;20289;-74
2021/10/01 03:53:41;;;;;;;112.47;35.55;;;;;;;5.19;100.00;100241.66;2114763;28;20689;-74
2021/10/01 03:54:46;;;;;;;100.80;35.13;;;;;;;5.18;100.00;100239.25;2114756;28;20698;-75
2021/10/01 03:55:48;;;;;;;96.43;35.22;;;;;;;5.19;100.00;100240.84;2114786;28;20284;-75
2021/10/01 03:56:51;;;;;;;92.00;34.38;;;;;;;5.18;100.00;100239.25;2106397;28;20205;-75
2021/10/01 03:57:54;;;;;;;112.05;37.42;;;;;;;5.25;100.00;100242.59;2106515;28;20263;-74
2021/10/01 03:58:56;;;;;;;156.10;36.53;;;;;;;5.28;100.00;100239.47;2106677;28;20190;-74
2021/10/01 03:59:58;;;;;;;138.40;35.17;;;;;;;5.24;100.00;100239.13;2114696;28;20579;-74
2021/10/01 04:00:59;;;;;;;162.90;37.95;;;;;;;5.24;100.00;100231.19;2106353;28;20224;-74
2021/10/01 04:02:01;;;;;;;172.55;38.17;;;;;;;5.22;100.00;100230.63;2106371;28;20674;-75
2021/10/01 04:03:02;;;;;;;168.50;36.78;;;;;;;5.21;100.00;100233.47;2114654;28;20209;-75
2021/10/01 04:04:11;;;;;;;101.10;35.47;;;;;;;5.16;100.00;100230.75;2107070;28;20193;-75
2021/10/01 04:05:12;;;;;;;126.78;36.67;;;;;;;5.17;100.00;100232.34;2106654;28;20194;-74
2021/10/01 04:06:15;;;;;;;89.30;35.42;;;;;;;5.15;100.00;100229.94;2106436;28;20212;-74
2021/10/01 04:07:16;;;;;;;67.68;34.15;;;;;;;5.17;100.00;100232.34;2106345;28;20201;-75
2021/10/01 04:08:17;;;;;;;100.83;35.83;;;;;;;5.17;100.00;100230.50;2106221;28;20197;-74
2021/10/01 04:09:21;;;;;;;87.25;35.58;;;;;;;5.23;100.00;100226.94;2106498;28;20228;-75
2021/10/01 04:10:25;;;;;;;109.57;35.60;;;;;;;5.18;100.00;100226.03;2106341;28;20649;-75
2021/10/01 04:11:27;;;;;;;138.40;37.53;;;;;;;5.21;100.00;100231.66;2115002;28;20192;-75
2021/10/01 04:12:29;;;;;;;219.98;38.17;;;;;;;5.28;100.00;100219.09;2114640;28;20195;-74
2021/10/01 04:13:30;;;;;;;197.82;38.55;;;;;;;5.27;100.00;100221.97;2106398;28;20198;-75
2021/10/01 04:14:33;;;;;;;160.87;38.03;;;;;;;5.24;100.00;100223.25;2106284;28;20215;-75
2021/10/01 04:15:35;;;;;;;138.07;36.22;;;;;;;5.21;100.00;100228.19;2106514;28;20688;-75
2021/10/01 04:16:36;;;;;;;143.80;37.95;;;;;;;5.20;100.00;100224.75;2106285;28;20201;-74
2021/10/01 04:17:37;;;;;;;160.25;36.95;;;;;;;5.23;100.00;100226.13;2106196;28;20686;-75
2021/10/01 04:18:41;;;;;;;219.52;40.05;;;;;;;5.22;100.00;100238.56;2106344;28;20193;-75
2021/10/01 04:19:42;;;;;;;118.35;37.25;;;;;;;5.22;100.00;100229.81;2106885;28;20202;-75
2021/10/01 04:20:45;;;;;;;101.20;36.00;;;;;;;5.21;100.00;100222.91;2106154;28;20255;-75
2021/10/01 04:21:46;;;;;;;170.02;40.17;;;;;;;5.20;100.00;100222.09;2106479;28;20217;-75
2021/10/01 04:22:49;;;;;;;144.80;38.38;;;;;;;5.19;100.00;100217.03;2106282;28;20682;-75
2021/10/01 04:24:14;;;;;;;195.27;39.28;;;;;;;5.20;100.00;100231.88;2097679;28;20544;-74
2021/10/01 04:25:26;;;;;;;141.80;37.22;;;;;;;5.17;100.00;100230.50;2114390;28;20295;-75
2021/10/01 04:26:27;;;;;;;93.07;35.72;;;;;;;5.19;100.00;100224.97;2106971;28;20727;-74
2021/10/01 04:27:29;;;;;;;153.93;37.97;;;;;;;5.22;100.00;100229.81;2106245;28;20540;-75
2021/10/01 04:28:30;;;;;;;148.13;38.70;;;;;;;5.21;100.00;100233.47;2114771;28;20491;-75
2021/10/01 04:29:36;;;;;;;129.65;38.70;;;;;;;5.23;100.00;100231.44;2114651;28;20697;-74
2021/10/01 04:30:42;;;;;;;147.43;38.58;;;;;;;5.24;100.00;100238.34;2106240;28;20331;-74
2021/10/01 04:31:46;;;;;;;119.25;38.33;;;;;;;5.25;100.00;100238.09;2106960;28;20182;-75
2021/10/01 04:32:57;;;;;;;110.38;37.85;;;;;;;5.26;100.00;100237.06;2114680;28;20237;-75
2021/10/01 04:33:59;;;;;;;108.72;36.78;;;;;;;5.27;100.00;100243.16;2114620;28;20199;-75
2021/10/01 04:35:01;;;;;;;153.07;43.78;;;;;;;5.29;100.00;100246.34;2106233;28;20197;-75
2021/10/01 04:36:03;;;;;;;140.23;40.67;;;;;;;5.30;100.00;100251.44;2114731;28;20578;-75
2021/10/01 04:37:04;;;;;;;148.07;42.22;;;;;;;5.32;100.00;100246.72;2114609;28;20226;-75
2021/10/01 04:38:06;;;;;;;239.83;42.97;;;;;;;5.32;100.00;100244.06;2106167;28;20190;-74
2021/10/01 04:39:14;;;;;;;270.25;44.78;;;;;;;5.33;100.00;100239.59;2107067;28;20255;-75
2021/10/01 04:40:15;;;;;;;244.48;43.17;;;;;;;5.32;100.00;100246.72;2106300;28;20668;-75
2021/10/01 04:41:18;;;;;;;134.70;40.08;;;;;;;5.35;100.00;100245.44;2106137;28;20366;-75
2021/10/01 04:42:19;;;;;;;154.73;41.90;;;;;;;5.36;100.00;100247.03;2106232;28;20242;-74
2021/10/01 04:43:21;;;;;;;245.37;44.50;;;;;;;5.36;100.00;100247.84;2114577;28;20269;-75
2021/10/01 04:44:42;;;;;;;171.02;43.60;;;;;;;5.37;100.00;100246.00;2114669;28;20754;-75
2021/10/01 04:45:46;;;;;;;155.38;42.40;;;;;;;5.39;100.00;100252.69;2114535;28;20200;-75
2021/10/01 04:46:46;;;;;;;161.82;41.50;;;;;;;5.38;100.00;100240.47;2114658;28;20769;-74
2021/10/01 04:47:48;;;;;;;138.23;40.47;;;;;;;5.42;100.00;100245.31;2115400;28;20578;-74
2021/10/01 04:48:49;;;;;;;164.48;41.58;;;;;;;5.42;100.00;100246.13;2114532;28;20221;-74